UAE422 EDDP-EDDH
Flight info
| Callsign | UAE422 |
|---|---|
| Flight time | 0h 39m |
| Altitude | 26000 |
| Route | PENEM1Q PENEM Y233 ODLUN Z207 MAG M736 LODRO/N0486F280 M736 SOGMA M748 ERNUD M726 BKD L619 BUMIL/N0457F240 M748 RARUP RARUP6A |
| Aircraft | A359/H-SDE2E3GHIJ3J4J5LM1ORWXY/LB1D1 |
Departure
| Time | 2026-05-07 18:55 |
|---|---|
| Airport | Leipzig/Halle Airport (EDDP) |
Arrival
| Time | 2026-05-07 19:35 |
|---|---|
| Airport | Hamburg Helmut Schmidt Airport (EDDH) |
| Time | Latitude | Longitude | Altitude | Speed | Heading |
|---|---|---|---|---|---|
| 2026-05-07 18:12 | 51.41906 | 12.21951 | 449 ft | 0 kts | 15° |
| 2026-05-07 18:46 | 51.41895 | 12.21946 | 449 ft | 4 kts | 10° |
| 2026-05-07 18:47 | 51.41869 | 12.21943 | 450 ft | 4 kts | 353° |
| 2026-05-07 18:47 | 51.41843 | 12.21953 | 449 ft | 4 kts | 334° |
| 2026-05-07 18:47 | 51.41821 | 12.21977 | 449 ft | 4 kts | 308° |
| 2026-05-07 18:47 | 51.41813 | 12.22000 | 449 ft | 1 kts | 285° |
| 2026-05-07 18:49 | 51.41813 | 12.21999 | 449 ft | 0 kts | 285° |
| 2026-05-07 18:50 | 51.41817 | 12.21971 | 449 ft | 7 kts | 284° |
| 2026-05-07 18:50 | 51.41838 | 12.21840 | 449 ft | 17 kts | 285° |
| 2026-05-07 18:50 | 51.41875 | 12.21623 | 440 ft | 24 kts | 285° |
| 2026-05-07 18:50 | 51.41921 | 12.21356 | 433 ft | 26 kts | 285° |
| 2026-05-07 18:51 | 51.41971 | 12.21062 | 428 ft | 28 kts | 285° |
| 2026-05-07 18:51 | 51.42008 | 12.20918 | 419 ft | 9 kts | 330° |
| 2026-05-07 18:51 | 51.42081 | 12.20936 | 427 ft | 13 kts | 14° |
| 2026-05-07 18:51 | 51.42180 | 12.20978 | 429 ft | 16 kts | 15° |
| 2026-05-07 18:52 | 51.42292 | 12.21028 | 426 ft | 17 kts | 15° |
| 2026-05-07 18:52 | 51.42413 | 12.21082 | 449 ft | 18 kts | 15° |
| 2026-05-07 18:52 | 51.42547 | 12.21139 | 449 ft | 21 kts | 14° |
| 2026-05-07 18:52 | 51.42696 | 12.21204 | 428 ft | 25 kts | 15° |
| 2026-05-07 18:53 | 51.42828 | 12.21261 | 424 ft | 14 kts | 15° |
| 2026-05-07 18:53 | 51.42920 | 12.21333 | 427 ft | 16 kts | 41° |
| 2026-05-07 18:53 | 51.43002 | 12.21460 | 425 ft | 17 kts | 45° |
| 2026-05-07 18:53 | 51.43080 | 12.21591 | 426 ft | 17 kts | 46° |
| 2026-05-07 18:54 | 51.43130 | 12.21726 | 436 ft | 5 kts | 81° |
| 2026-05-07 18:54 | 51.43130 | 12.21729 | 436 ft | 0 kts | 82° |
| 2026-05-07 18:54 | 51.43131 | 12.21739 | 430 ft | 8 kts | 83° |
| 2026-05-07 18:55 | 51.43153 | 12.22209 | 430 ft | 80 kts | 85° |
| 2026-05-07 18:55 | 51.43213 | 12.23470 | 455 ft | 143 kts | 86° |
| 2026-05-07 18:55 | 51.43308 | 12.25175 | 994 ft | 153 kts | 83° |
| 2026-05-07 18:55 | 51.43687 | 12.26726 | 1711 ft | 154 kts | 41° |
| 2026-05-07 18:56 | 51.44788 | 12.27166 | 1985 ft | 186 kts | 348° |
| 2026-05-07 18:56 | 51.45916 | 12.25924 | 2462 ft | 210 kts | 312° |
| 2026-05-07 18:56 | 51.47120 | 12.24494 | 3024 ft | 224 kts | 337° |
| 2026-05-07 18:56 | 51.48668 | 12.23594 | 3556 ft | 245 kts | 345° |
| 2026-05-07 18:57 | 51.50323 | 12.22882 | 4331 ft | 253 kts | 347° |
| 2026-05-07 18:57 | 51.52055 | 12.22223 | 5223 ft | 257 kts | 348° |
| 2026-05-07 18:57 | 51.53825 | 12.21587 | 6112 ft | 263 kts | 348° |
| 2026-05-07 18:57 | 51.55634 | 12.20956 | 6728 ft | 268 kts | 349° |
| 2026-05-07 18:58 | 51.57463 | 12.20327 | 6985 ft | 270 kts | 349° |
| 2026-05-07 18:58 | 51.59308 | 12.19697 | 7021 ft | 271 kts | 349° |
| 2026-05-07 18:58 | 51.61109 | 12.18784 | 7100 ft | 274 kts | 334° |
| 2026-05-07 18:58 | 51.62743 | 12.17256 | 7468 ft | 276 kts | 329° |
| 2026-05-07 18:59 | 51.64377 | 12.15573 | 8363 ft | 278 kts | 328° |
| 2026-05-07 18:59 | 51.66003 | 12.13897 | 9507 ft | 277 kts | 329° |
| 2026-05-07 18:59 | 51.67648 | 12.12210 | 10389 ft | 285 kts | 329° |
| 2026-05-07 18:59 | 51.69373 | 12.10449 | 10836 ft | 308 kts | 329° |
| 2026-05-07 19:00 | 51.71192 | 12.08372 | 11214 ft | 332 kts | 322° |
| 2026-05-07 19:00 | 51.72959 | 12.05755 | 11619 ft | 354 kts | 316° |
| 2026-05-07 19:00 | 51.74695 | 12.02777 | 11984 ft | 374 kts | 314° |
| 2026-05-07 19:00 | 51.76444 | 11.99574 | 12227 ft | 384 kts | 313° |
| 2026-05-07 19:01 | 51.78215 | 11.96310 | 13004 ft | 387 kts | 314° |
| 2026-05-07 19:01 | 51.80209 | 11.93462 | 13961 ft | 387 kts | 326° |
| 2026-05-07 19:01 | 51.82580 | 11.91363 | 14728 ft | 389 kts | 337° |
| 2026-05-07 19:01 | 51.85119 | 11.89766 | 15444 ft | 393 kts | 342° |
| 2026-05-07 19:02 | 51.87695 | 11.88462 | 16479 ft | 387 kts | 345° |
| 2026-05-07 19:02 | 51.90284 | 11.87293 | 17537 ft | 385 kts | 345° |
| 2026-05-07 19:02 | 51.92898 | 11.86151 | 18388 ft | 388 kts | 345° |
| 2026-05-07 19:02 | 51.95505 | 11.85004 | 19101 ft | 393 kts | 344° |
| 2026-05-07 19:03 | 51.98159 | 11.83809 | 19860 ft | 396 kts | 344° |
| 2026-05-07 19:03 | 52.00792 | 11.82595 | 20602 ft | 399 kts | 343° |
| 2026-05-07 19:03 | 52.03493 | 11.81331 | 21292 ft | 405 kts | 343° |
| 2026-05-07 19:03 | 52.06208 | 11.80046 | 22010 ft | 409 kts | 343° |
| 2026-05-07 19:04 | 52.08959 | 11.78738 | 22749 ft | 412 kts | 343° |
| 2026-05-07 19:04 | 52.11727 | 11.77419 | 23497 ft | 415 kts | 343° |
| 2026-05-07 19:04 | 52.14484 | 11.76105 | 24124 ft | 419 kts | 343° |
| 2026-05-07 19:04 | 52.17321 | 11.74752 | 24692 ft | 424 kts | 343° |
| 2026-05-07 19:05 | 52.20160 | 11.73397 | 25245 ft | 429 kts | 343° |
| 2026-05-07 19:05 | 52.23044 | 11.72019 | 25776 ft | 434 kts | 343° |
| 2026-05-07 19:05 | 52.25169 | 11.71004 | 26017 ft | 434 kts | 343° |
| 2026-05-07 19:05 | 52.28086 | 11.69609 | 26109 ft | 439 kts | 343° |
| 2026-05-07 19:06 | 52.30957 | 11.68235 | 26095 ft | 421 kts | 343° |
| 2026-05-07 19:06 | 52.36369 | 11.65641 | 26097 ft | 388 kts | 343° |
| 2026-05-07 19:06 | 52.38919 | 11.64415 | 26113 ft | 377 kts | 343° |
| 2026-05-07 19:07 | 52.41402 | 11.63219 | 26098 ft | 376 kts | 343° |
| 2026-05-07 19:07 | 52.43915 | 11.62006 | 26103 ft | 376 kts | 343° |
| 2026-05-07 19:07 | 52.46437 | 11.60786 | 26105 ft | 377 kts | 343° |
| 2026-05-07 19:07 | 52.48965 | 11.59563 | 26104 ft | 377 kts | 343° |
| 2026-05-07 19:08 | 52.51459 | 11.58356 | 26115 ft | 377 kts | 343° |
| 2026-05-07 19:08 | 52.53983 | 11.57134 | 26102 ft | 377 kts | 343° |
| 2026-05-07 19:08 | 52.56507 | 11.55909 | 26100 ft | 377 kts | 343° |
| 2026-05-07 19:08 | 52.59020 | 11.54690 | 26104 ft | 376 kts | 343° |
| 2026-05-07 19:09 | 52.61526 | 11.53472 | 26104 ft | 375 kts | 343° |
| 2026-05-07 19:09 | 52.64038 | 11.52249 | 26117 ft | 375 kts | 343° |
| 2026-05-07 19:09 | 52.66513 | 11.51043 | 26104 ft | 375 kts | 343° |
| 2026-05-07 19:09 | 52.69011 | 11.49824 | 26105 ft | 375 kts | 343° |
| 2026-05-07 19:10 | 52.71522 | 11.48598 | 26109 ft | 375 kts | 342° |
| 2026-05-07 19:10 | 52.74034 | 11.47369 | 26108 ft | 375 kts | 342° |
| 2026-05-07 19:10 | 52.76535 | 11.46144 | 26107 ft | 375 kts | 342° |
| 2026-05-07 19:10 | 52.79050 | 11.44911 | 26108 ft | 375 kts | 342° |
| 2026-05-07 19:11 | 52.81527 | 11.43695 | 26107 ft | 375 kts | 342° |
| 2026-05-07 19:11 | 52.84031 | 11.42465 | 26107 ft | 375 kts | 342° |
| 2026-05-07 19:11 | 52.86529 | 11.41236 | 25837 ft | 372 kts | 342° |
| 2026-05-07 19:11 | 52.88982 | 11.40029 | 25602 ft | 364 kts | 342° |
| 2026-05-07 19:12 | 52.91398 | 11.38838 | 25281 ft | 359 kts | 342° |
| 2026-05-07 19:12 | 52.93784 | 11.37660 | 24884 ft | 356 kts | 342° |
| 2026-05-07 19:12 | 52.96125 | 11.36502 | 24510 ft | 354 kts | 342° |
| 2026-05-07 19:12 | 52.98481 | 11.35336 | 24189 ft | 351 kts | 342° |
| 2026-05-07 19:13 | 53.00825 | 11.34175 | 24117 ft | 352 kts | 342° |
| 2026-05-07 19:13 | 53.03173 | 11.33009 | 24097 ft | 352 kts | 342° |
| 2026-05-07 19:13 | 53.05534 | 11.31836 | 23710 ft | 353 kts | 342° |
| 2026-05-07 19:13 | 53.07863 | 11.30679 | 23450 ft | 345 kts | 342° |
| 2026-05-07 19:14 | 53.10130 | 11.29512 | 23193 ft | 337 kts | 339° |
| 2026-05-07 19:14 | 53.12259 | 11.27967 | 22818 ft | 332 kts | 330° |
| 2026-05-07 19:14 | 53.14206 | 11.25996 | 22393 ft | 329 kts | 325° |
| 2026-05-07 19:14 | 53.16103 | 11.23869 | 21961 ft | 327 kts | 324° |
| 2026-05-07 19:15 | 53.17977 | 11.21724 | 21542 ft | 325 kts | 324° |
| 2026-05-07 19:15 | 53.19842 | 11.19578 | 21144 ft | 323 kts | 324° |
| 2026-05-07 19:15 | 53.21665 | 11.17475 | 20740 ft | 322 kts | 324° |
| 2026-05-07 19:15 | 53.23504 | 11.15349 | 20354 ft | 320 kts | 324° |
| 2026-05-07 19:16 | 53.25340 | 11.13224 | 19834 ft | 321 kts | 324° |
| 2026-05-07 19:16 | 53.27204 | 11.11063 | 19084 ft | 331 kts | 324° |
| 2026-05-07 19:16 | 53.29131 | 11.08825 | 18311 ft | 341 kts | 324° |
| 2026-05-07 19:16 | 53.31089 | 11.06550 | 17396 ft | 350 kts | 324° |
| 2026-05-07 19:17 | 53.33126 | 11.04181 | 16503 ft | 359 kts | 324° |
| 2026-05-07 19:17 | 53.35183 | 11.01787 | 15570 ft | 368 kts | 324° |
| 2026-05-07 19:17 | 53.37305 | 10.99312 | 14601 ft | 376 kts | 325° |
| 2026-05-07 19:17 | 53.39479 | 10.96775 | 13622 ft | 384 kts | 325° |
| 2026-05-07 19:18 | 53.41679 | 10.94204 | 12735 ft | 384 kts | 325° |
| 2026-05-07 19:18 | 53.43870 | 10.91641 | 12000 ft | 381 kts | 325° |
| 2026-05-07 19:18 | 53.46040 | 10.89098 | 11284 ft | 378 kts | 325° |
| 2026-05-07 19:18 | 53.48168 | 10.86601 | 10568 ft | 375 kts | 325° |
| 2026-05-07 19:19 | 53.50299 | 10.84098 | 9884 ft | 372 kts | 325° |
| 2026-05-07 19:19 | 53.52359 | 10.81672 | 9416 ft | 348 kts | 326° |
| 2026-05-07 19:19 | 53.54269 | 10.79418 | 8961 ft | 323 kts | 326° |
| 2026-05-07 19:19 | 53.56053 | 10.77313 | 8544 ft | 301 kts | 326° |
| 2026-05-07 19:20 | 53.57720 | 10.75342 | 8059 ft | 285 kts | 327° |
| 2026-05-07 19:20 | 53.59245 | 10.73331 | 7471 ft | 279 kts | 314° |
| 2026-05-07 19:20 | 53.60197 | 10.70489 | 7182 ft | 282 kts | 286° |
| 2026-05-07 19:20 | 53.60349 | 10.67206 | 7136 ft | 282 kts | 267° |
| 2026-05-07 19:21 | 53.60173 | 10.63902 | 7126 ft | 282 kts | 264° |
| 2026-05-07 19:21 | 53.60031 | 10.61722 | 7120 ft | 281 kts | 264° |
| 2026-05-07 19:21 | 53.59812 | 10.58450 | 7128 ft | 281 kts | 264° |
| 2026-05-07 19:21 | 53.59521 | 10.54117 | 7116 ft | 281 kts | 264° |
| 2026-05-07 19:22 | 53.59302 | 10.50852 | 7119 ft | 281 kts | 264° |
| 2026-05-07 19:22 | 53.59153 | 10.48638 | 7128 ft | 281 kts | 264° |
| 2026-05-07 19:22 | 53.58933 | 10.45364 | 7080 ft | 280 kts | 264° |
| 2026-05-07 19:22 | 53.58717 | 10.42156 | 6676 ft | 278 kts | 264° |
| 2026-05-07 19:23 | 53.58498 | 10.38916 | 6208 ft | 279 kts | 264° |
| 2026-05-07 19:23 | 53.58290 | 10.35680 | 5794 ft | 277 kts | 264° |
| 2026-05-07 19:23 | 53.58092 | 10.32443 | 5347 ft | 277 kts | 264° |
| 2026-05-07 19:23 | 53.57904 | 10.29232 | 5042 ft | 273 kts | 264° |
| 2026-05-07 19:24 | 53.57725 | 10.26078 | 4997 ft | 275 kts | 264° |
| 2026-05-07 19:24 | 53.57545 | 10.22870 | 4991 ft | 276 kts | 264° |
| 2026-05-07 19:24 | 53.57364 | 10.19644 | 4991 ft | 275 kts | 264° |
| 2026-05-07 19:24 | 53.57002 | 10.16523 | 4993 ft | 275 kts | 247° |
| 2026-05-07 19:25 | 53.56089 | 10.13707 | 4997 ft | 273 kts | 236° |
| 2026-05-07 19:25 | 53.55025 | 10.11059 | 4994 ft | 273 kts | 234° |
| 2026-05-07 19:25 | 53.53939 | 10.08422 | 4988 ft | 273 kts | 234° |
| 2026-05-07 19:25 | 53.52852 | 10.05791 | 4994 ft | 273 kts | 234° |
| 2026-05-07 19:26 | 53.51776 | 10.03191 | 4996 ft | 273 kts | 234° |
| 2026-05-07 19:26 | 53.50689 | 10.00561 | 4994 ft | 274 kts | 234° |
| 2026-05-07 19:26 | 53.49601 | 9.97928 | 4985 ft | 273 kts | 234° |
| 2026-05-07 19:26 | 53.48516 | 9.95303 | 4991 ft | 274 kts | 234° |
| 2026-05-07 19:27 | 53.47428 | 9.92671 | 4995 ft | 273 kts | 234° |
| 2026-05-07 19:27 | 53.46383 | 9.90145 | 4971 ft | 258 kts | 234° |
| 2026-05-07 19:27 | 53.45390 | 9.87736 | 4989 ft | 244 kts | 234° |
| 2026-05-07 19:27 | 53.44428 | 9.85401 | 4993 ft | 242 kts | 234° |
| 2026-05-07 19:28 | 53.43468 | 9.83070 | 4699 ft | 243 kts | 234° |
| 2026-05-07 19:28 | 53.42517 | 9.80759 | 4475 ft | 236 kts | 234° |
| 2026-05-07 19:28 | 53.41669 | 9.78490 | 4321 ft | 228 kts | 245° |
| 2026-05-07 19:28 | 53.41462 | 9.75910 | 4078 ft | 223 kts | 279° |
| 2026-05-07 19:29 | 53.42063 | 9.73568 | 3802 ft | 219 kts | 311° |
| 2026-05-07 19:29 | 53.43144 | 9.71805 | 3523 ft | 216 kts | 322° |
| 2026-05-07 19:29 | 53.44295 | 9.70247 | 3260 ft | 215 kts | 323° |
| 2026-05-07 19:29 | 53.45485 | 9.68740 | 3014 ft | 212 kts | 330° |
| 2026-05-07 19:30 | 53.46879 | 9.68164 | 2987 ft | 206 kts | 11° |
| 2026-05-07 19:30 | 53.48156 | 9.69089 | 2995 ft | 199 kts | 39° |
| 2026-05-07 19:30 | 53.49134 | 9.70732 | 2996 ft | 198 kts | 53° |
| 2026-05-07 19:30 | 53.50000 | 9.72542 | 2993 ft | 199 kts | 52° |
| 2026-05-07 19:31 | 53.50884 | 9.74337 | 2997 ft | 199 kts | 52° |
| 2026-05-07 19:31 | 53.51765 | 9.76103 | 2992 ft | 200 kts | 52° |
| 2026-05-07 19:31 | 53.52653 | 9.77874 | 2961 ft | 194 kts | 52° |
| 2026-05-07 19:31 | 53.53510 | 9.79588 | 2765 ft | 189 kts | 52° |
| 2026-05-07 19:32 | 53.54345 | 9.81273 | 2484 ft | 186 kts | 52° |
| 2026-05-07 19:32 | 53.55169 | 9.82937 | 2203 ft | 183 kts | 52° |
| 2026-05-07 19:32 | 53.55974 | 9.84561 | 1939 ft | 177 kts | 52° |
| 2026-05-07 19:32 | 53.56739 | 9.86112 | 1684 ft | 166 kts | 52° |
| 2026-05-07 19:33 | 53.57441 | 9.87541 | 1453 ft | 148 kts | 52° |
| 2026-05-07 19:33 | 53.58061 | 9.88793 | 1302 ft | 134 kts | 51° |
| 2026-05-07 19:33 | 53.58648 | 9.89950 | 1106 ft | 126 kts | 51° |
| 2026-05-07 19:33 | 53.59202 | 9.91074 | 860 ft | 121 kts | 51° |
| 2026-05-07 19:34 | 53.59734 | 9.92157 | 742 ft | 122 kts | 50° |
| 2026-05-07 19:34 | 53.60288 | 9.93274 | 579 ft | 126 kts | 51° |
| 2026-05-07 19:34 | 53.60852 | 9.94406 | 414 ft | 127 kts | 49° |
| 2026-05-07 19:34 | 53.61424 | 9.95548 | 234 ft | 126 kts | 51° |
| 2026-05-07 19:35 | 53.61997 | 9.96724 | 95 ft | 130 kts | 50° |
| 2026-05-07 19:35 | 53.62534 | 9.97806 | 46 ft | 105 kts | 50° |
| 2026-05-07 19:35 | 53.62844 | 9.98432 | 49 ft | 39 kts | 50° |
| 2026-05-07 19:35 | 53.62993 | 9.98733 | 51 ft | 24 kts | 50° |
| 2026-05-07 19:36 | 53.63074 | 9.98947 | 51 ft | 17 kts | 70° |
| 2026-05-07 19:36 | 53.63091 | 9.99104 | 53 ft | 11 kts | 89° |
| 2026-05-07 19:36 | 53.63088 | 9.99209 | 52 ft | 0 kts | 94° |
| 2026-05-07 19:37 | 53.63084 | 9.99257 | 51 ft | 9 kts | 100° |
| 2026-05-07 19:37 | 53.63081 | 9.99334 | 53 ft | 0 kts | 69° |
| 2026-05-07 19:37 | 53.63083 | 9.99340 | 53 ft | 3 kts | 68° |
| 2026-05-07 19:38 | 53.63116 | 9.99422 | 50 ft | 13 kts | 58° |
| 2026-05-07 19:38 | 53.63173 | 9.99561 | 49 ft | 16 kts | 52° |
| 2026-05-07 19:38 | 53.63218 | 9.99658 | 48 ft | 0 kts | 51° |
| 2026-05-07 19:39 | 53.63224 | 9.99671 | 56 ft | 4 kts | 51° |
| 2026-05-07 19:39 | 53.63233 | 9.99760 | 52 ft | 13 kts | 121° |
| 2026-05-07 19:39 | 53.63136 | 9.99838 | 52 ft | 17 kts | 155° |
| 2026-05-07 19:39 | 53.63022 | 9.99935 | 50 ft | 20 kts | 152° |
| 2026-05-07 19:40 | 53.62946 | 10.00043 | 50 ft | 11 kts | 101° |
| 2026-05-07 19:40 | 53.62988 | 10.00136 | 50 ft | 11 kts | 31° |
| 2026-05-07 19:40 | 53.63048 | 10.00205 | 49 ft | 8 kts | 52° |
| 2026-05-07 19:40 | 53.63038 | 10.00274 | 51 ft | 7 kts | 117° |
| 2026-05-07 19:41 | 53.63022 | 10.00320 | 49 ft | 1 kts | 122° |
| 2026-05-07 19:41 | 53.63017 | 10.00333 | 49 ft | 1 kts | 123° |
| 2026-05-07 19:41 | 53.63013 | 10.00343 | 50 ft | 2 kts | 123° |
| 2026-05-07 19:41 | 53.63007 | 10.00358 | 49 ft | 0 kts | 122° |
| 2026-05-07 19:42 | 53.63007 | 10.00359 | 49 ft | 0 kts | 122° |